Time;durP1;ratioP1;P1;durP2;ratioP2;P2;SDS_P1;SDS_P2;PMS_P1;PMS_P2;Temp;Humidity;BMP_temperature;BMP_pressure;BME280_temperature;BME280_humidity;BME280_pressure;Samples;Min_cycle;Max_cycle;Signal;HPM_P1;HPM_P2
2023/08/05 00:04:12;;;;;;;5.77;3.70;;;;;;;20.02;58.06;99847.81;31085002;28;113806;-71
2023/08/05 00:19:12;;;;;;;7.80;3.10;;;;;;;19.86;58.52;99860.25;31082980;28;112729;-68
2023/08/05 00:34:12;;;;;;;5.53;3.20;;;;;;;19.78;58.70;99833.56;31019275;28;115205;-64
2023/08/05 00:49:13;;;;;;;6.35;3.97;;;;;;;19.75;59.25;99823.22;30964304;28;102281;-67
2023/08/05 01:04:13;;;;;;;5.28;3.38;;;;;;;19.66;59.23;99811.97;30962812;28;97157;-67
2023/08/05 01:19:23;;;;;;;5.28;3.17;;;;;;;19.57;59.39;99818.78;30961915;28;96723;-70
2023/08/05 01:34:24;;;;;;;5.47;3.57;;;;;;;19.56;59.64;99799.06;31040382;28;97499;-63
2023/08/05 01:49:24;;;;;;;5.30;3.33;;;;;;;19.53;59.91;99783.34;31082406;28;104971;-69
2023/08/05 02:04:24;;;;;;;5.65;3.20;;;;;;;19.49;59.74;99765.16;31085730;28;96609;-68
2023/08/05 02:19:25;;;;;;;6.43;3.08;;;;;;;19.48;59.71;99775.13;31101347;28;117472;-67
2023/08/05 02:34:25;;;;;;;7.28;3.60;;;;;;;19.44;59.75;99755.06;31100528;28;110597;-64
2023/08/05 02:49:25;;;;;;;6.78;3.40;;;;;;;19.36;59.78;99744.66;31100076;28;96710;-71
2023/08/05 03:04:26;;;;;;;10.52;3.83;;;;;;;19.20;60.08;99748.91;31098222;28;112587;-66
2023/08/05 03:19:26;;;;;;;5.50;3.47;;;;;;;19.13;60.35;99770.63;31095896;28;101415;-62
2023/08/05 03:34:26;;;;;;;7.40;3.65;;;;;;;19.09;60.63;99777.56;31094109;28;105854;-66
2023/08/05 03:49:26;;;;;;;5.18;3.60;;;;;;;19.11;61.06;99761.97;31093586;28;97567;-62
2023/08/05 04:04:28;;;;;;;4.88;4.13;;;;;;;19.16;61.13;99761.22;31091317;28;96983;-69
2023/08/05 04:19:28;;;;;;;5.47;3.87;;;;;;;19.15;61.63;99762.28;31089815;28;97078;-69
2023/08/05 04:34:33;;;;;;;7.88;4.40;;;;;;;19.15;62.16;99756.88;31088135;28;97641;-66
2023/08/05 04:49:34;;;;;;;7.77;4.37;;;;;;;19.13;62.48;99762.53;31086468;28;97746;-62
2023/08/05 05:04:34;;;;;;;8.57;4.95;;;;;;;19.08;62.53;99763.25;31084533;28;98137;-66
2023/08/05 05:19:35;;;;;;;9.73;4.20;;;;;;;19.12;62.47;99793.28;31083439;28;114867;-65
2023/08/05 05:34:35;;;;;;;7.47;4.85;;;;;;;19.24;62.20;99761.69;31081963;28;96810;-63
2023/08/05 05:49:35;;;;;;;7.35;4.25;;;;;;;19.32;61.94;99789.38;31101369;28;110316;-66
2023/08/05 06:04:36;;;;;;;7.72;4.30;;;;;;;19.49;61.64;99784.91;31102296;28;97196;-67
2023/08/05 06:19:36;;;;;;;6.47;3.90;;;;;;;19.55;61.50;99786.63;31098308;28;99101;-65
2023/08/05 06:34:36;;;;;;;5.30;3.45;;;;;;;19.67;61.21;99764.13;31096401;28;107237;-65
2023/08/05 06:49:37;;;;;;;6.45;3.70;;;;;;;19.63;61.65;99763.81;31089283;28;102523;-68
2023/08/05 07:04:37;;;;;;;7.03;3.58;;;;;;;19.77;62.09;99765.16;31090125;28;97073;-62
2023/08/05 07:19:37;;;;;;;8.85;3.65;;;;;;;19.94;62.50;99754.44;31088085;28;109854;-69
2023/08/05 07:34:38;;;;;;;7.00;3.97;;;;;;;20.05;62.61;99762.72;31046978;28;1194361;-62
2023/08/05 07:49:39;;;;;;;5.57;3.93;;;;;;;20.04;63.74;99747.53;31091178;28;96926;-64
2023/08/05 08:04:40;;;;;;;9.87;5.90;;;;;;;20.33;64.34;99723.97;31088767;28;96790;-66
2023/08/05 08:19:41;;;;;;;7.40;5.73;;;;;;;20.75;64.58;99709.19;31084924;28;97332;-73
2023/08/05 08:34:41;;;;;;;6.93;5.17;;;;;;;21.39;63.78;99697.00;31084261;28;96903;-67
2023/08/05 08:49:46;;;;;;;7.27;5.27;;;;;;;22.30;62.16;99677.25;31082964;28;97296;-65
2023/08/05 09:04:47;;;;;;;9.10;5.30;;;;;;;21.86;61.26;99690.19;31077688;28;97306;-67
2023/08/05 09:19:47;;;;;;;7.47;5.57;;;;;;;21.35;61.67;99698.56;31083967;28;97562;-65
2023/08/05 09:34:50;;;;;;;13.23;6.43;;;;;;;21.02;62.29;99705.75;31082364;28;97418;-67
2023/08/05 09:49:52;;;;;;;7.33;6.27;;;;;;;20.69;62.91;99729.94;31072506;28;97887;-67
2023/08/05 10:04:53;;;;;;;9.10;6.17;;;;;;;20.45;63.30;99707.66;31103167;28;97309;-67
2023/08/05 10:19:54;;;;;;;21.27;6.70;;;;;;;20.33;63.71;99723.16;31196272;28;97709;-66
2023/08/05 10:35:25;;;;;;;11.13;7.07;;;;;;;20.44;63.91;99703.31;31147087;27;105233;-68
2023/08/05 10:50:37;;;;;;;8.73;6.83;;;;;;;20.49;63.97;99714.22;31089506;28;96867;-68
2023/08/05 11:05:38;;;;;;;7.77;6.13;;;;;;;20.63;64.07;99690.34;31086613;28;97209;-67
2023/08/05 11:20:39;;;;;;;14.17;8.13;;;;;;;20.52;64.42;99688.56;31085292;28;97083;-66
2023/08/05 11:35:45;;;;;;;10.07;6.87;;;;;;;20.46;64.91;99677.66;31084094;28;97061;-66
2023/08/05 11:50:46;;;;;;;14.03;8.80;;;;;;;20.37;65.34;99695.38;31083708;28;96698;-66
2023/08/05 12:05:46;;;;;;;11.30;9.40;;;;;;;20.41;65.75;99679.47;31084243;28;96994;-67
2023/08/05 12:20:47;;;;;;;12.10;10.37;;;;;;;20.52;66.19;99683.97;31037993;28;97183;-68
2023/08/05 12:35:47;;;;;;;13.57;10.40;;;;;;;20.17;67.35;99660.69;30956724;28;96969;-67
2023/08/05 12:50:51;;;;;;;16.80;12.43;;;;;;;20.06;68.31;99648.09;30953913;28;97442;-65
2023/08/05 13:05:51;;;;;;;16.03;13.43;;;;;;;19.90;69.26;99634.34;30953743;28;97545;-68
2023/08/05 13:20:51;;;;;;;17.33;12.63;;;;;;;19.76;69.89;99612.16;30952600;28;99741;-66
2023/08/05 13:35:52;;;;;;;15.73;12.25;;;;;;;19.49;70.82;99603.91;30951540;28;97529;-68
2023/08/05 13:50:59;;;;;;;11.75;9.95;;;;;;;19.27;71.53;99610.00;30949434;28;97155;-67
2023/08/05 14:06:00;;;;;;;9.13;7.67;;;;;;;19.13;71.98;99600.53;30960985;28;97598;-68
2023/08/05 14:21:01;;;;;;;9.90;7.65;;;;;;;18.82;72.25;99597.22;30968596;28;111112;-69
2023/08/05 14:36:11;;;;;;;9.18;7.45;;;;;;;18.52;72.95;99578.53;30968335;28;97343;-66
2023/08/05 14:51:12;;;;;;;11.40;8.20;;;;;;;18.31;73.64;99579.97;30990460;28;97543;-66
2023/08/05 15:06:13;;;;;;;10.15;8.40;;;;;;;18.09;74.53;99584.06;31088747;28;117915;-66
2023/08/05 15:21:13;;;;;;;8.30;7.33;;;;;;;18.11;75.20;99583.81;31087692;28;96819;-65
2023/08/05 15:36:16;;;;;;;12.93;7.63;;;;;;;18.07;75.72;99574.56;31085399;28;97093;-65
2023/08/05 15:51:17;;;;;;;6.47;4.60;;;;;;;18.14;76.14;99525.94;31085547;28;97477;-64
2023/08/05 16:06:17;;;;;;;5.78;4.07;;;;;;;18.00;76.29;99493.88;31078761;28;110844;-65
2023/08/05 16:21:20;;;;;;;4.03;3.05;;;;;;;17.86;76.56;99442.06;31079788;28;97327;-65
2023/08/05 16:36:22;;;;;;;6.73;4.07;;;;;;;17.68;76.76;99549.94;31077799;28;97589;-65
2023/08/05 16:51:22;;;;;;;11.67;6.87;;;;;;;17.44;76.78;99617.19;31070652;28;97321;-65
2023/08/05 17:06:22;;;;;;;9.18;6.38;;;;;;;17.11;77.53;99582.69;31078164;28;106059;-65
2023/08/05 17:21:23;;;;;;;3.88;2.80;;;;;;;16.89;77.79;99626.22;31076690;28;97220;-65
2023/08/05 17:36:23;;;;;;;4.57;2.47;;;;;;;16.73;77.86;99582.72;31083165;28;111147;-65
2023/08/05 17:51:23;;;;;;;5.32;3.75;;;;;;;16.61;78.40;99532.59;31096203;28;97030;-65
2023/08/05 18:06:24;;;;;;;4.50;2.88;;;;;;;16.50;78.64;99383.66;31094480;28;113063;-65
2023/08/05 18:21:25;;;;;;;6.22;3.10;;;;;;;16.32;79.06;99452.53;31093051;28;97638;-66
2023/08/05 18:36:26;;;;;;;5.97;3.30;;;;;;;16.30;79.49;99446.53;31081107;28;97138;-66
2023/08/05 18:51:26;;;;;;;3.38;2.28;;;;;;;16.34;79.79;99449.63;31079349;28;97079;-66
2023/08/05 19:06:26;;;;;;;3.03;2.20;;;;;;;16.32;79.91;99483.94;31089557;28;97106;-66
2023/08/05 19:21:27;;;;;;;3.92;2.97;;;;;;;16.35;80.13;99494.28;31088296;28;97178;-66
2023/08/05 19:36:27;;;;;;;4.18;3.38;;;;;;;16.38;80.26;99464.25;31086395;28;111444;-67
2023/08/05 19:51:27;;;;;;;5.00;3.50;;;;;;;16.44;80.34;99424.88;31078618;28;97295;-65
2023/08/05 20:06:27;;;;;;;5.50;4.20;;;;;;;16.51;80.45;99396.88;31079812;28;98000;-66
2023/08/05 20:21:28;;;;;;;7.57;4.28;;;;;;;16.49;80.26;99409.69;31075599;28;98004;-69
2023/08/05 20:36:28;;;;;;;7.13;4.20;;;;;;;16.49;80.53;99379.31;31077949;28;110026;-69
2023/08/05 20:51:30;;;;;;;7.18;5.22;;;;;;;16.44;80.62;99373.81;31075976;28;109125;-69
2023/08/05 21:06:30;;;;;;;7.57;5.33;;;;;;;16.34;80.60;99348.28;31079270;28;97399;-69
2023/08/05 21:21:31;;;;;;;6.63;4.05;;;;;;;16.34;80.70;99358.22;31076953;28;112218;-70
2023/08/05 21:36:31;;;;;;;5.85;4.72;;;;;;;16.31;80.85;99337.19;31076047;28;107137;-69
2023/08/05 21:51:31;;;;;;;6.30;5.13;;;;;;;16.26;80.72;99323.63;31075519;28;97775;-69
2023/08/05 22:06:32;;;;;;;6.05;4.53;;;;;;;16.18;80.72;99282.59;31075328;28;102390;-69
2023/08/05 22:21:32;;;;;;;5.40;4.30;;;;;;;16.16;80.81;99265.88;31077675;28;97253;-69
2023/08/05 22:36:32;;;;;;;8.02;5.00;;;;;;;16.15;80.77;99215.88;31092715;28;113384;-68
2023/08/05 22:51:33;;;;;;;5.55;4.75;;;;;;;16.07;80.58;99192.03;31092519;28;96711;-69
2023/08/05 23:06:33;;;;;;;6.88;4.80;;;;;;;16.02;81.06;99165.88;31006132;28;103000;-69
2023/08/05 23:21:37;;;;;;;5.85;4.28;;;;;;;15.95;80.90;99142.84;31095885;28;97985;-68
2023/08/05 23:36:37;;;;;;;5.97;4.00;;;;;;;15.86;81.10;99116.31;31095261;28;97511;-69
2023/08/05 23:51:37;;;;;;;4.13;3.05;;;;;;;15.75;81.28;99111.72;31094676;28;97451;-69
